Hlavní strana
METAR-TAF:

METAR-TAF

Letiště :

Dar es Salaam, Tanzanie

zeměpisná šířka: 06-52S, zeměpisná délka: 039-12E, výška: 55 m

Aktuální stav počasí

Zpráva byla vytvořena před 1 hodinou a 39 minutami, v 08:00 UTC
Jižní vítr 17 kt
Teplota 30°C
Vlhkost vzduchu 66%
Tlak 1018 hPa
Viditelnost 10 km a více
Skoro jasno ve výšce 1600 ft

METAR: HTDA 280800Z 18017KT 9999 FEW016 30/23 Q1018 NOSIG

Čas: 12:39 (09:39 UTC)

Předpověď počasí

Zpráva byla vytvořena před 4 hodinami a 39 minutami, v 05:00 UTC
Předpověď platná od 28 v 06 UTC do 29 v 12 UTC
Jihojihozápadní vítr 10 kt
Viditelnost 10 km a více
Oblačno až skoro zataženo ve výšce 1900 ft
Skoro jasno ve výšce 2000 ft, Cumulonimbus.

TAF: HTDA 280500Z 2806/2912 20010KT 9999 BKN019 FEW020CB

Stav a předpovědi počasí z více než 4 000 letišť (zprávy METAR a TAF).

Červené a žluté tečky na mapě představují dostupné meteorologické stanice.

Když kurzor umístíte na tečku, zobrazí se název stanice.

Pak kliknutím zobrazíte stav a předpověď počasí.

Chcete-li změnit mapu, kliknutím na zelené tlačítko se znaménkem +mapu přiblížíte, kliknutím na zelené tlačítko se znaménkem – mapu oddálíte a kliknutím na zelené šipky přejdete na sousední mapy.


METAR-TAF: